Time;durP1;ratioP1;P1;durP2;ratioP2;P2;SDS_P1;SDS_P2;PMS_P1;PMS_P2;Temp;Humidity;BMP_temperature;BMP_pressure;BME280_temperature;BME280_humidity;BME280_pressure;Samples;Min_cycle;Max_cycle;Signal;HPM_P1;HPM_P2
2023/05/05 00:01:07;;;;;;;0.60;0.60;;;11.90;79.90;;;;;;5012830;28;20022;-76
2023/05/05 00:03:34;;;;;;;0.30;0.30;;;11.80;80.40;;;;;;5014338;28;20018;-78
2023/05/05 00:05:59;;;;;;;0.50;0.50;;;11.90;81.10;;;;;;5012393;28;20106;-78
2023/05/05 00:08:25;;;;;;;0.50;0.50;;;11.80;81.20;;;;;;5013515;28;20490;-78
2023/05/05 00:10:52;;;;;;;0.52;0.52;;;11.80;81.50;;;;;;5015371;28;20034;-78
2023/05/05 00:13:19;;;;;;;0.52;0.52;;;11.70;81.90;;;;;;5017641;28;20113;-77
2023/05/05 00:15:46;;;;;;;0.50;0.50;;;11.70;82.30;;;;;;5021485;28;20034;-77
2023/05/05 00:18:15;;;;;;;0.60;0.60;;;11.70;82.80;;;;;;5025796;28;20018;-77
2023/05/05 00:20:41;;;;;;;0.60;0.60;;;11.60;83.00;;;;;;5025911;28;20414;-77
2023/05/05 00:23:07;;;;;;;0.65;0.50;;;11.60;84.00;;;;;;5022433;28;20352;-77
2023/05/05 00:25:32;;;;;;;0.45;0.45;;;11.60;83.70;;;;;;5015471;28;20061;-77
2023/05/05 00:27:58;;;;;;;0.55;0.50;;;11.60;84.00;;;;;;5031489;28;20030;-77
2023/05/05 00:30:24;;;;;;;0.60;0.60;;;11.50;84.30;;;;;;5025156;28;20081;-77
2023/05/05 00:32:50;;;;;;;0.80;0.70;;;11.50;84.70;;;;;;5026118;28;20100;-77
2023/05/05 00:35:16;;;;;;;0.90;0.90;;;11.50;85.10;;;;;;5023947;28;20112;-77
2023/05/05 00:37:42;;;;;;;0.95;0.90;;;11.40;85.40;;;;;;5020903;28;20029;-78
2023/05/05 00:40:09;;;;;;;1.83;1.08;;;11.40;85.90;;;;;;4996016;28;20048;-79
2023/05/05 00:42:46;;;;;;;0.70;0.70;;;11.40;86.20;;;;;;4999795;28;20066;-78
2023/05/05 00:45:13;;;;;;;0.80;0.80;;;11.40;86.70;;;;;;4998663;28;20034;-78
2023/05/05 00:47:41;;;;;;;1.08;0.98;;;11.30;87.30;;;;;;5018933;28;20033;-77
2023/05/05 00:50:10;;;;;;;0.80;0.80;;;11.30;87.70;;;;;;5014555;28;20049;-77
2023/05/05 00:52:37;;;;;;;1.00;0.90;;;11.30;88.20;;;;;;5009428;28;20030;-78
2023/05/05 00:55:03;;;;;;;1.08;1.00;;;11.20;88.50;;;;;;5010352;28;20018;-78
2023/05/05 00:57:30;;;;;;;0.75;0.75;;;11.20;88.90;;;;;;5009798;28;20026;-78
2023/05/05 00:59:57;;;;;;;0.80;0.80;;;11.30;89.30;;;;;;5011852;28;20030;-76
2023/05/05 01:02:23;;;;;;;0.80;0.80;;;11.20;89.70;;;;;;5009440;28;20026;-78
2023/05/05 01:04:49;;;;;;;0.77;0.77;;;11.20;90.10;;;;;;4996879;28;20501;-77
2023/05/05 01:07:39;;;;;;;0.80;0.80;;;11.20;90.30;;;;;;5008807;28;20023;-77
2023/05/05 01:10:13;;;;;;;1.08;0.98;;;11.10;90.60;;;;;;5005156;28;20037;-77
2023/05/05 01:13:09;;;;;;;0.70;0.70;;;11.10;90.90;;;;;;5007345;28;20431;-77
2023/05/05 01:15:40;;;;;;;2.08;0.80;;;11.10;91.20;;;;;;5003736;28;20113;-78
2023/05/05 01:18:29;;;;;;;0.95;0.93;;;11.10;91.50;;;;;;5020767;28;20044;-77
2023/05/05 01:21:02;;;;;;;0.60;0.60;;;11.00;91.80;;;;;;5010310;28;20044;-78
2023/05/05 01:24:07;;;;;;;0.77;0.77;;;11.00;92.20;;;;;;5017552;28;20021;-77
2023/05/05 01:26:35;;;;;;;0.63;0.63;;;11.00;92.50;;;;;;4978673;28;20030;-78
2023/05/05 01:29:26;;;;;;;0.55;0.55;;;11.00;92.80;;;;;;4994088;28;20113;-77
2023/05/05 01:32:03;;;;;;;0.75;0.70;;;11.00;93.10;;;;;;5001669;28;20030;-76
2023/05/05 01:34:44;;;;;;;0.70;0.70;;;11.00;93.30;;;;;;5025809;28;20384;-78
2023/05/05 01:37:17;;;;;;;0.70;0.70;;;10.90;93.50;;;;;;5014639;28;20306;-77
2023/05/05 01:39:45;;;;;;;0.93;0.85;;;10.90;93.70;;;;;;5019238;28;20025;-77
2023/05/05 01:42:13;;;;;;;0.80;0.80;;;10.90;94.00;;;;;;5000160;28;20113;-78
2023/05/05 01:44:42;;;;;;;0.93;0.80;;;10.90;94.30;;;;;;5014964;28;20374;-79
2023/05/05 01:47:11;;;;;;;0.80;0.80;;;10.90;94.50;;;;;;5001489;28;20025;-77
2023/05/05 01:49:37;;;;;;;0.75;0.75;;;10.90;94.70;;;;;;5016375;28;20025;-78
2023/05/05 01:52:04;;;;;;;0.68;0.68;;;10.90;94.80;;;;;;5015917;28;20420;-78
2023/05/05 01:54:33;;;;;;;0.95;0.77;;;10.90;95.00;;;;;;5014993;28;20424;-77
2023/05/05 01:57:02;;;;;;;0.80;0.80;;;10.90;95.20;;;;;;5015325;28;20480;-78
2023/05/05 01:59:28;;;;;;;0.93;0.93;;;10.90;95.40;;;;;;5015584;28;20096;-77
2023/05/05 02:01:56;;;;;;;0.80;0.80;;;10.90;95.50;;;;;;4995236;28;20495;-77
2023/05/05 02:04:23;;;;;;;0.80;0.80;;;10.90;95.70;;;;;;4982535;28;20073;-78
2023/05/05 02:06:53;;;;;;;0.80;0.80;;;10.90;95.90;;;;;;4997598;28;20455;-78
2023/05/05 02:09:20;;;;;;;0.80;0.80;;;10.90;96.00;;;;;;5000608;28;20025;-78
2023/05/05 02:11:46;;;;;;;0.68;0.68;;;11.00;96.20;;;;;;5006487;28;20029;-78
2023/05/05 02:14:12;;;;;;;0.85;0.85;;;11.00;96.20;;;;;;5014199;28;20109;-77
2023/05/05 02:16:42;;;;;;;0.63;0.63;;;10.90;96.30;;;;;;4997712;28;20080;-78
2023/05/05 02:19:08;;;;;;;0.50;0.50;;;10.90;96.40;;;;;;5011520;28;20014;-78
2023/05/05 02:21:33;;;;;;;1.05;0.93;;;10.90;96.60;;;;;;5023403;28;20042;-77
2023/05/05 02:24:00;;;;;;;0.90;0.90;;;10.80;96.70;;;;;;5004723;28;20042;-78
2023/05/05 02:26:28;;;;;;;0.75;0.75;;;10.80;97.00;;;;;;5015931;28;20034;-78
2023/05/05 02:28:54;;;;;;;1.08;1.08;;;10.80;97.10;;;;;;5014666;28;20026;-76
2023/05/05 02:31:22;;;;;;;0.98;0.90;;;10.70;97.30;;;;;;5014998;28;20022;-78
2023/05/05 02:33:51;;;;;;;0.80;0.80;;;10.70;97.50;;;;;;4999304;28;20049;-77
2023/05/05 02:36:20;;;;;;;0.77;0.77;;;10.70;97.70;;;;;;4999652;28;20089;-76
2023/05/05 02:38:51;;;;;;;0.60;0.60;;;10.70;97.90;;;;;;5019855;28;20041;-76
2023/05/05 02:41:19;;;;;;;1.13;1.02;;;10.70;98.10;;;;;;4998849;28;20471;-77
2023/05/05 02:43:47;;;;;;;0.77;0.77;;;10.70;98.20;;;;;;5020851;28;20053;-77
2023/05/05 02:46:13;;;;;;;1.00;0.90;;;10.70;98.20;;;;;;5011121;28;20073;-77
2023/05/05 02:48:38;;;;;;;0.82;0.82;;;10.70;98.40;;;;;;5011561;28;20479;-77
2023/05/05 02:51:04;;;;;;;0.80;0.80;;;10.70;98.50;;;;;;5022485;28;20485;-78
2023/05/05 02:53:31;;;;;;;0.70;0.70;;;10.60;98.60;;;;;;5016584;28;20029;-77
2023/05/05 02:56:24;;;;;;;0.93;0.93;;;10.60;98.70;;;;;;5016258;28;20394;-78
2023/05/05 02:59:11;;;;;;;0.80;0.80;;;10.60;98.90;;;;;;4997772;28;20018;-77
2023/05/05 03:01:46;;;;;;;0.65;0.65;;;10.60;99.10;;;;;;5014668;28;20029;-77
2023/05/05 03:04:16;;;;;;;1.13;0.90;;;10.60;99.30;;;;;;5013847;28;20100;-77
2023/05/05 03:06:46;;;;;;;0.60;0.60;;;10.60;99.50;;;;;;4996464;28;20049;-78
2023/05/05 03:09:14;;;;;;;0.55;0.55;;;10.60;99.70;;;;;;4983139;28;20049;-77
2023/05/05 03:11:49;;;;;;;0.80;0.80;;;10.60;99.80;;;;;;5013557;28;20022;-77
2023/05/05 03:14:18;;;;;;;0.50;0.50;;;10.60;99.90;;;;;;4996814;28;20486;-78
2023/05/05 03:16:46;;;;;;;0.80;0.80;;;10.60;99.90;;;;;;5015884;28;20063;-77
2023/05/05 03:19:15;;;;;;;0.60;0.60;;;10.60;99.90;;;;;;5010285;28;20027;-77
2023/05/05 03:21:42;;;;;;;0.80;0.80;;;10.60;99.90;;;;;;5011283;28;20033;-77
2023/05/05 03:24:15;;;;;;;0.63;0.63;;;10.70;99.90;;;;;;5010962;28;20022;-77
2023/05/05 03:26:41;;;;;;;0.80;0.80;;;10.70;99.90;;;;;;5001816;28;20048;-75
2023/05/05 03:29:07;;;;;;;0.45;0.45;;;10.70;99.90;;;;;;4933205;28;20033;-74
2023/05/05 03:31:33;;;;;;;0.60;0.60;;;10.70;99.90;;;;;;4968656;28;20084;-77
2023/05/05 03:33:59;;;;;;;0.50;0.50;;;10.70;99.90;;;;;;4998452;28;20022;-77
2023/05/05 03:36:26;;;;;;;0.40;0.40;;;10.80;99.90;;;;;;4996560;28;20052;-76
2023/05/05 03:38:52;;;;;;;0.47;0.47;;;10.80;99.90;;;;;;5015146;28;20025;-77
2023/05/05 03:41:18;;;;;;;0.40;0.40;;;10.80;99.90;;;;;;5005243;28;20018;-76
2023/05/05 03:43:44;;;;;;;0.57;0.57;;;10.80;99.90;;;;;;5014441;28;20109;-77
2023/05/05 03:46:10;;;;;;;0.65;0.65;;;10.80;99.90;;;;;;5013863;28;20029;-77
2023/05/05 03:48:35;;;;;;;0.50;0.50;;;10.70;99.90;;;;;;5015921;28;20041;-75
2023/05/05 03:51:01;;;;;;;0.70;0.70;;;10.70;99.90;;;;;;5015893;28;20049;-78
2023/05/05 03:53:27;;;;;;;0.50;0.50;;;10.70;99.90;;;;;;5019900;28;20033;-77
2023/05/05 03:55:52;;;;;;;0.68;0.68;;;10.70;99.90;;;;;;5018008;28;20056;-78
2023/05/05 03:58:18;;;;;;;0.57;0.57;;;10.70;99.90;;;;;;4998347;28;20418;-77
2023/05/05 04:00:44;;;;;;;0.70;0.70;;;10.70;99.90;;;;;;5017545;28;20026;-77
2023/05/05 04:03:10;;;;;;;0.50;0.50;;;10.70;99.90;;;;;;5017575;28;20018;-79
2023/05/05 04:05:35;;;;;;;0.45;0.45;;;10.70;99.90;;;;;;5017568;28;20026;-78
2023/05/05 04:08:02;;;;;;;0.55;0.55;;;10.80;99.90;;;;;;5017302;28;20029;-78
2023/05/05 04:10:28;;;;;;;0.65;0.65;;;10.90;99.90;;;;;;5017866;28;20022;-77
2023/05/05 04:12:54;;;;;;;0.50;0.50;;;10.90;99.90;;;;;;5000529;28;20092;-77
2023/05/05 04:15:20;;;;;;;0.90;0.52;;;11.00;99.90;;;;;;5015290;28;20033;-78
2023/05/05 04:17:45;;;;;;;0.40;0.40;;;11.00;99.90;;;;;;4999963;28;20128;-78
2023/05/05 04:20:11;;;;;;;0.57;0.57;;;11.10;99.90;;;;;;5016793;28;20104;-78
2023/05/05 04:22:37;;;;;;;0.40;0.40;;;11.10;99.90;;;;;;5015491;28;20022;-78
2023/05/05 04:25:03;;;;;;;0.38;0.38;;;11.10;99.90;;;;;;5029966;28;20037;-76
2023/05/05 04:27:29;;;;;;;0.32;0.32;;;11.20;99.90;;;;;;5020954;28;20041;-77
2023/05/05 04:29:55;;;;;;;0.50;0.50;;;11.20;99.90;;;;;;4998071;28;20036;-77
2023/05/05 04:32:21;;;;;;;0.35;0.35;;;11.20;99.90;;;;;;5013793;28;20032;-77
2023/05/05 04:34:47;;;;;;;0.40;0.40;;;11.30;99.90;;;;;;5017546;28;20089;-75
2023/05/05 04:37:13;;;;;;;0.63;0.40;;;11.30;99.90;;;;;;4994751;28;20344;-76
2023/05/05 04:39:38;;;;;;;0.63;0.63;;;11.40;99.90;;;;;;4998841;28;20500;-76
2023/05/05 04:42:04;;;;;;;0.82;0.82;;;11.40;99.90;;;;;;5012453;28;20030;-78
2023/05/05 04:44:30;;;;;;;0.70;0.70;;;11.50;99.90;;;;;;5010666;28;20022;-78
2023/05/05 04:46:56;;;;;;;0.80;0.80;;;11.50;99.90;;;;;;5018729;28;20026;-78
2023/05/05 04:49:22;;;;;;;0.93;0.90;;;11.60;99.90;;;;;;5019001;28;20014;-78
2023/05/05 04:51:48;;;;;;;0.70;0.70;;;11.60;99.90;;;;;;5020980;28;20102;-76
2023/05/05 04:54:13;;;;;;;0.70;0.70;;;11.70;99.90;;;;;;4993282;28;20022;-77
2023/05/05 04:56:39;;;;;;;0.90;0.90;;;11.80;99.90;;;;;;5013285;28;20041;-76
2023/05/05 04:59:05;;;;;;;0.70;0.70;;;11.90;99.90;;;;;;5011855;28;20034;-77
2023/05/05 05:01:30;;;;;;;1.42;0.98;;;12.10;99.80;;;;;;5021250;28;20205;-77
2023/05/05 05:03:56;;;;;;;0.80;0.80;;;12.20;99.60;;;;;;5014403;28;20030;-75
2023/05/05 05:06:22;;;;;;;1.23;1.13;;;12.40;99.30;;;;;;5026186;28;20038;-75
2023/05/05 05:08:47;;;;;;;1.05;0.95;;;12.80;99.10;;;;;;5025252;28;20149;-77
2023/05/05 05:11:13;;;;;;;0.63;0.63;;;13.40;98.10;;;;;;5024263;28;20025;-77
2023/05/05 05:13:40;;;;;;;0.90;0.90;;;13.80;96.70;;;;;;4998593;28;20088;-79
2023/05/05 05:16:06;;;;;;;2.22;1.10;;;14.10;95.50;;;;;;5011744;28;20098;-77
2023/05/05 05:18:32;;;;;;;1.40;1.30;;;14.10;94.80;;;;;;5020760;28;20118;-77
2023/05/05 05:20:57;;;;;;;1.10;1.10;;;14.00;94.20;;;;;;4991157;28;20014;-76
2023/05/05 05:23:23;;;;;;;1.33;1.13;;;13.90;94.10;;;;;;5005421;28;20023;-77
2023/05/05 05:25:48;;;;;;;1.27;1.23;;;13.70;94.10;;;;;;5011748;28;20026;-77
2023/05/05 05:28:14;;;;;;;0.77;0.77;;;13.60;94.40;;;;;;5020440;28;20036;-76
2023/05/05 05:30:40;;;;;;;0.73;0.73;;;13.70;94.70;;;;;;5021093;28;20091;-76
2023/05/05 05:33:05;;;;;;;1.00;1.00;;;13.90;94.70;;;;;;5020240;28;20084;-78
2023/05/05 05:35:31;;;;;;;0.70;0.70;;;14.20;94.40;;;;;;5020688;28;20021;-77
2023/05/05 05:37:57;;;;;;;0.80;0.80;;;14.50;93.60;;;;;;5020473;28;20048;-77
2023/05/05 05:40:23;;;;;;;0.68;0.60;;;14.70;92.70;;;;;;5015395;28;20015;-78
2023/05/05 05:42:48;;;;;;;0.95;0.95;;;14.90;92.30;;;;;;5013419;28;20117;-78
2023/05/05 05:45:14;;;;;;;1.00;1.00;;;15.00;92.20;;;;;;5011227;28;20035;-76
2023/05/05 05:47:40;;;;;;;0.65;0.65;;;15.10;91.70;;;;;;5020789;28;20026;-78
2023/05/05 05:50:06;;;;;;;0.90;0.90;;;15.30;91.30;;;;;;5012186;28;20026;-78
2023/05/05 05:52:32;;;;;;;0.90;0.80;;;15.50;91.00;;;;;;5001310;28;20038;-79
2023/05/05 05:54:58;;;;;;;0.55;0.55;;;15.70;90.70;;;;;;5019894;28;20030;-78
2023/05/05 05:57:24;;;;;;;0.70;0.70;;;15.80;90.10;;;;;;5019571;28;20030;-79
2023/05/05 05:59:49;;;;;;;1.00;0.82;;;15.90;89.60;;;;;;5021120;28;20068;-78
2023/05/05 06:02:15;;;;;;;0.63;0.63;;;16.30;89.00;;;;;;5004296;28;20053;-77
2023/05/05 06:04:41;;;;;;;0.50;0.50;;;18.00;87.50;;;;;;5019484;28;20018;-77
2023/05/05 06:07:07;;;;;;;0.38;0.38;;;19.50;81.70;;;;;;5004985;28;20030;-77
2023/05/05 06:09:32;;;;;;;1.05;1.05;;;21.20;74.00;;;;;;4999434;28;20055;-78
2023/05/05 06:11:58;;;;;;;0.60;0.60;;;22.10;67.50;;;;;;5017651;28;20037;-77
2023/05/05 06:14:24;;;;;;;0.57;0.57;;;21.70;64.30;;;;;;5020570;28;21211;-77
2023/05/05 06:16:51;;;;;;;0.95;0.90;;;20.90;64.90;;;;;;5019051;28;20033;-77
2023/05/05 06:19:16;;;;;;;0.70;0.70;;;20.00;66.40;;;;;;5022145;28;20033;-78
2023/05/05 06:21:42;;;;;;;1.13;1.02;;;19.20;68.60;;;;;;5020095;28;20029;-78
2023/05/05 06:24:08;;;;;;;0.77;0.77;;;19.50;70.70;;;;;;5018609;28;20017;-78
2023/05/05 06:26:33;;;;;;;0.80;0.80;;;20.70;67.60;;;;;;5034036;28;20070;-76
2023/05/05 06:29:00;;;;;;;0.90;0.90;;;20.60;64.90;;;;;;5022764;28;20368;-77
2023/05/05 06:31:26;;;;;;;0.82;0.82;;;20.10;65.80;;;;;;5017271;28;20029;-77
2023/05/05 06:33:51;;;;;;;0.60;0.60;;;19.70;66.50;;;;;;5001065;28;20443;-78
2023/05/05 06:36:17;;;;;;;0.63;0.63;;;19.30;68.60;;;;;;5016479;28;20022;-77
2023/05/05 06:38:42;;;;;;;0.65;0.65;;;20.60;69.60;;;;;;5019849;28;20018;-76
2023/05/05 06:41:08;;;;;;;1.40;1.30;;;22.80;64.40;;;;;;4991891;28;20081;-76
2023/05/05 06:43:33;;;;;;;1.52;1.42;;;23.70;58.80;;;;;;5014573;28;20045;-78
2023/05/05 06:45:59;;;;;;;1.60;1.50;;;23.00;57.80;;;;;;5008831;28;20033;-77
2023/05/05 06:48:25;;;;;;;1.40;1.30;;;22.00;59.40;;;;;;5013500;28;20030;-77
2023/05/05 06:50:51;;;;;;;1.50;1.40;;;21.20;61.50;;;;;;5006395;28;20114;-80
2023/05/05 06:53:16;;;;;;;1.92;1.75;;;20.70;63.40;;;;;;5020223;28;20030;-79
2023/05/05 06:55:44;;;;;;;1.80;1.67;;;20.70;63.90;;;;;;5021748;28;20037;-79
2023/05/05 06:58:10;;;;;;;2.00;1.80;;;20.60;64.30;;;;;;5020042;28;20029;-80
2023/05/05 07:00:38;;;;;;;2.05;1.63;;;20.60;64.20;;;;;;5015732;28;20026;-78
2023/05/05 07:03:04;;;;;;;2.35;2.00;;;20.30;64.30;;;;;;5004691;28;20467;-78
2023/05/05 07:05:29;;;;;;;1.77;1.63;;;19.90;65.70;;;;;;5016390;28;20040;-78
2023/05/05 07:07:56;;;;;;;3.47;2.20;;;19.40;67.00;;;;;;5013026;28;20090;-80
2023/05/05 07:10:23;;;;;;;2.40;2.20;;;19.10;68.40;;;;;;5018235;28;20018;-77
2023/05/05 07:12:50;;;;;;;2.30;2.10;;;18.80;69.50;;;;;;5001840;28;20021;-78
2023/05/05 07:15:16;;;;;;;2.38;2.05;;;18.60;70.70;;;;;;5018116;28;20045;-79
2023/05/05 07:17:42;;;;;;;1.77;1.67;;;18.50;71.40;;;;;;4999956;28;20036;-78
2023/05/05 07:20:08;;;;;;;3.13;2.63;;;18.40;72.00;;;;;;4986114;28;20094;-78
2023/05/05 07:22:34;;;;;;;5.60;2.70;;;18.30;72.60;;;;;;4998114;28;20446;-78
2023/05/05 07:25:00;;;;;;;3.40;2.80;;;18.30;73.00;;;;;;4997448;28;20034;-78
2023/05/05 07:27:26;;;;;;;4.88;2.80;;;18.30;73.10;;;;;;4981186;28;20037;-78
2023/05/05 07:29:52;;;;;;;5.88;2.92;;;18.30;73.20;;;;;;5003418;28;20030;-79
2023/05/05 07:32:17;;;;;;;2.72;2.33;;;18.40;73.30;;;;;;4985653;28;20053;-78
2023/05/05 07:34:43;;;;;;;2.58;2.30;;;18.40;73.40;;;;;;5007304;28;20014;-77
2023/05/05 07:37:09;;;;;;;2.38;2.15;;;18.50;73.30;;;;;;5011265;28;20026;-76
2023/05/05 07:39:35;;;;;;;3.55;2.30;;;18.60;73.30;;;;;;5016598;28;20145;-79
2023/05/05 07:42:00;;;;;;;2.13;1.98;;;18.70;73.10;;;;;;5017735;28;20037;-77
2023/05/05 07:44:26;;;;;;;2.42;1.90;;;18.80;72.70;;;;;;5021330;28;20040;-80
2023/05/05 07:46:52;;;;;;;3.33;2.58;;;18.90;72.20;;;;;;5018800;28;20103;-79
2023/05/05 07:49:18;;;;;;;3.35;1.95;;;19.00;71.60;;;;;;5018479;28;20029;-78
2023/05/05 07:51:44;;;;;;;4.65;3.00;;;19.20;71.30;;;;;;5014991;28;20030;-79
2023/05/05 07:54:10;;;;;;;2.63;2.20;;;19.30;71.00;;;;;;4979061;28;20037;-78
2023/05/05 07:56:36;;;;;;;5.15;2.90;;;19.40;70.50;;;;;;4979970;28;20062;-79
2023/05/05 07:59:03;;;;;;;2.35;2.15;;;19.50;69.50;;;;;;4997381;28;20050;-78
2023/05/05 08:01:29;;;;;;;3.25;2.95;;;19.60;69.40;;;;;;5010167;28;20064;-79
2023/05/05 08:03:54;;;;;;;6.03;2.67;;;19.80;68.70;;;;;;5017826;28;20014;-80
2023/05/05 08:06:20;;;;;;;3.85;2.30;;;19.90;67.60;;;;;;5017508;28;20026;-80
2023/05/05 08:08:52;;;;;;;2.95;2.40;;;20.00;67.60;;;;;;5017669;28;20108;-80
2023/05/05 08:11:18;;;;;;;3.90;2.30;;;20.10;67.20;;;;;;5015270;28;20014;-80
2023/05/05 08:13:44;;;;;;;2.45;2.25;;;20.20;66.90;;;;;;5007094;28;20045;-79
2023/05/05 08:16:10;;;;;;;3.10;1.90;;;20.30;66.30;;;;;;4998436;28;20026;-78
2023/05/05 08:18:37;;;;;;;2.00;1.90;;;20.40;66.10;;;;;;4982777;28;20416;-79
2023/05/05 08:21:07;;;;;;;1.73;1.60;;;20.50;66.10;;;;;;5002443;28;20065;-78
2023/05/05 08:23:34;;;;;;;3.25;1.85;;;20.70;65.70;;;;;;5007388;28;20438;-76
2023/05/05 08:26:01;;;;;;;3.15;2.45;;;20.70;65.10;;;;;;4998611;28;20393;-76
2023/05/05 08:28:27;;;;;;;1.95;1.75;;;20.90;65.10;;;;;;5003790;28;20037;-75
2023/05/05 08:30:53;;;;;;;3.17;1.98;;;21.00;64.70;;;;;;5059562;23;20050;-76
2023/05/05 08:33:19;;;;;;;2.08;1.88;;;21.10;64.30;;;;;;4997922;28;20030;-75
2023/05/05 08:35:45;;;;;;;1.88;1.77;;;21.20;64.30;;;;;;4978735;28;20081;-76
2023/05/05 08:38:11;;;;;;;4.38;2.20;;;21.40;64.20;;;;;;4979010;28;20026;-75
2023/05/05 08:40:38;;;;;;;3.45;1.75;;;21.40;63.60;;;;;;4972319;28;20074;-76
2023/05/05 08:43:04;;;;;;;3.30;2.20;;;21.40;63.80;;;;;;4986052;28;20037;-76
2023/05/05 08:45:30;;;;;;;2.63;2.22;;;21.60;63.40;;;;;;4978871;28;20054;-76
2023/05/05 08:48:00;;;;;;;2.85;2.17;;;21.80;62.90;;;;;;4977619;28;20019;-76
2023/05/05 08:50:28;;;;;;;1.92;1.73;;;22.00;62.40;;;;;;4977984;28;20493;-76
2023/05/05 08:53:20;;;;;;;1.73;1.63;;;22.10;62.10;;;;;;4986429;28;20053;-76
2023/05/05 08:55:54;;;;;;;2.55;1.92;;;22.20;61.70;;;;;;4996225;28;20042;-76
2023/05/05 08:58:22;;;;;;;3.00;2.03;;;22.30;60.90;;;;;;4996999;28;20030;-76
2023/05/05 09:00:50;;;;;;;2.42;2.22;;;22.40;60.70;;;;;;4996770;28;20356;-76
2023/05/05 09:03:16;;;;;;;4.57;2.22;;;22.50;60.10;;;;;;4997918;28;20492;-76
2023/05/05 09:05:42;;;;;;;1.92;1.67;;;22.60;59.70;;;;;;4995401;28;20050;-75
2023/05/05 09:08:10;;;;;;;1.73;1.63;;;22.60;59.80;;;;;;4994854;28;20031;-75
2023/05/05 09:10:36;;;;;;;3.30;2.17;;;22.80;59.80;;;;;;4988347;28;20452;-76
2023/05/05 09:13:05;;;;;;;3.47;2.08;;;23.00;59.30;;;;;;4999197;28;20034;-74
2023/05/05 09:15:32;;;;;;;6.40;2.55;;;23.10;58.90;;;;;;4996049;28;20036;-75
2023/05/05 09:18:01;;;;;;;3.47;2.38;;;23.00;58.60;;;;;;4992478;28;20037;-76
2023/05/05 09:20:34;;;;;;;2.20;1.98;;;22.90;59.10;;;;;;4992329;28;20428;-76
2023/05/05 09:23:20;;;;;;;3.15;2.53;;;23.00;59.40;;;;;;4991797;28;20029;-76
2023/05/05 09:26:07;;;;;;;2.20;2.10;;;23.00;58.90;;;;;;4987862;28;20073;-75
2023/05/05 09:28:33;;;;;;;6.32;2.30;;;23.00;59.20;;;;;;4992992;28;20030;-76
2023/05/05 09:31:12;;;;;;;3.65;1.67;;;23.00;59.30;;;;;;4995609;28;20037;-77
2023/05/05 09:33:38;;;;;;;2.22;1.67;;;23.30;59.30;;;;;;5001352;28;20026;-75
2023/05/05 09:36:04;;;;;;;1.88;1.65;;;23.60;58.50;;;;;;4981714;28;20034;-75
2023/05/05 09:38:30;;;;;;;1.48;1.38;;;23.80;57.00;;;;;;4997434;28;20488;-76
2023/05/05 09:40:55;;;;;;;2.33;1.83;;;23.90;56.50;;;;;;4986588;28;20035;-76
2023/05/05 09:43:22;;;;;;;3.17;1.95;;;23.80;56.60;;;;;;4986359;28;20030;-76
2023/05/05 09:45:49;;;;;;;2.88;2.35;;;23.70;56.60;;;;;;4999705;28;20535;-76
2023/05/05 09:48:29;;;;;;;3.45;1.77;;;23.60;56.90;;;;;;4998265;28;20042;-76
2023/05/05 09:50:56;;;;;;;3.70;2.17;;;23.40;57.80;;;;;;5003395;28;20134;-75
2023/05/05 09:53:26;;;;;;;2.15;2.00;;;23.50;57.50;;;;;;5012026;28;20019;-76
2023/05/05 09:56:00;;;;;;;1.55;1.45;;;23.80;57.40;;;;;;4998431;28;20053;-76
2023/05/05 09:58:27;;;;;;;1.60;1.50;;;24.10;56.70;;;;;;4999577;28;20052;-74
2023/05/05 10:00:54;;;;;;;1.58;1.55;;;24.10;56.20;;;;;;4998789;28;20015;-76
2023/05/05 10:03:21;;;;;;;1.50;1.40;;;24.40;55.90;;;;;;4996392;28;20018;-75
2023/05/05 10:05:54;;;;;;;1.00;1.00;;;24.60;55.20;;;;;;4995160;28;20549;-76
2023/05/05 10:08:29;;;;;;;3.30;1.63;;;24.40;55.30;;;;;;4979136;28;20117;-76
2023/05/05 10:11:00;;;;;;;1.67;1.58;;;24.10;55.60;;;;;;4997747;28;20034;-77
2023/05/05 10:13:30;;;;;;;4.63;1.98;;;23.70;56.50;;;;;;4982900;28;20034;-77
2023/05/05 10:15:56;;;;;;;2.80;1.88;;;;;;;;;;4993026;28;20121;-76
2023/05/05 10:18:24;;;;;;;2.45;1.60;;;23.50;57.30;;;;;;4984096;28;20140;-75
2023/05/05 10:20:55;;;;;;;1.88;1.70;;;24.00;57.40;;;;;;5000364;28;20019;-76
2023/05/05 10:23:23;;;;;;;2.45;2.08;;;24.50;56.20;;;;;;4996685;28;20060;-76
2023/05/05 10:25:55;;;;;;;1.83;1.73;;;24.90;55.00;;;;;;4995680;28;20181;-75
2023/05/05 10:28:53;;;;;;;2.63;2.10;;;25.20;54.60;;;;;;4995120;28;20030;-76
2023/05/05 10:31:35;;;;;;;2.80;2.03;;;25.10;53.90;;;;;;4995646;28;20114;-76
2023/05/05 10:34:23;;;;;;;1.90;1.80;;;24.70;54.30;;;;;;4995365;28;20053;-75
2023/05/05 10:36:52;;;;;;;2.13;1.92;;;24.30;55.50;;;;;;4998999;28;20106;-79
2023/05/05 10:39:18;;;;;;;2.00;1.45;;;24.20;55.90;;;;;;5000262;28;20034;-76
2023/05/05 10:41:46;;;;;;;2.55;1.95;;;;;;;;;;5001975;28;20110;-76
2023/05/05 10:44:13;;;;;;;4.03;1.92;;;24.00;55.80;;;;;;4981839;28;20092;-77
2023/05/05 10:46:40;;;;;;;2.08;1.98;;;23.80;56.50;;;;;;5001037;28;20071;-76
2023/05/05 10:49:28;;;;;;;1.45;1.45;;;23.70;56.50;;;;;;4996192;28;20503;-77
2023/05/05 10:52:08;;;;;;;1.88;1.50;;;23.80;57.00;;;;;;4995865;28;20037;-76
2023/05/05 10:54:48;;;;;;;1.70;1.60;;;23.80;56.60;;;;;;4976893;28;20034;-77
2023/05/05 10:57:17;;;;;;;1.40;1.30;;;24.00;56.50;;;;;;4994871;28;20039;-77
2023/05/05 10:59:46;;;;;;;1.50;1.38;;;24.60;55.10;;;;;;4979169;28;20026;-78
2023/05/05 11:02:25;;;;;;;2.40;2.15;;;25.10;53.90;;;;;;4978380;28;20114;-79
2023/05/05 11:05:09;;;;;;;5.60;2.42;;;25.50;52.20;;;;;;5000550;28;20026;-78
2023/05/05 11:07:38;;;;;;;3.40;1.90;;;25.60;52.40;;;;;;4997043;28;20053;-77
2023/05/05 11:10:05;;;;;;;1.90;1.80;;;25.40;52.60;;;;;;4994404;28;20113;-76
2023/05/05 11:12:52;;;;;;;1.80;1.70;;;25.00;53.70;;;;;;4994547;28;20034;-76
2023/05/05 11:15:30;;;;;;;1.83;1.70;;;24.50;53.90;;;;;;4992022;28;20069;-77
2023/05/05 11:18:01;;;;;;;1.90;1.80;;;24.50;54.10;;;;;;4994897;28;20034;-77
2023/05/05 11:20:36;;;;;;;3.15;2.30;;;24.60;53.60;;;;;;4995904;28;20391;-76
2023/05/05 11:23:02;;;;;;;2.30;2.10;;;24.80;53.20;;;;;;4987333;28;20019;-76
2023/05/05 11:25:37;;;;;;;1.52;1.42;;;25.00;53.00;;;;;;4992179;28;20053;-76
2023/05/05 11:28:13;;;;;;;3.72;1.70;;;24.90;53.00;;;;;;4995243;28;20068;-76
2023/05/05 11:31:05;;;;;;;1.42;1.42;;;24.90;52.90;;;;;;4993077;28;20088;-77
2023/05/05 11:33:35;;;;;;;1.50;1.40;;;25.00;53.00;;;;;;4968055;28;20042;-78
2023/05/05 11:36:01;;;;;;;2.47;2.30;;;25.40;52.80;;;;;;4995794;28;20026;-76
2023/05/05 11:38:58;;;;;;;3.88;2.20;;;25.90;52.30;;;;;;4978956;28;20034;-77
2023/05/05 11:41:29;;;;;;;2.10;2.00;;;26.00;52.10;;;;;;4992448;28;20337;-78
2023/05/05 11:44:15;;;;;;;2.25;1.88;;;26.00;52.60;;;;;;4996276;28;20022;-77
2023/05/05 11:47:03;;;;;;;2.20;1.98;;;26.10;51.70;;;;;;4996213;28;20035;-77
2023/05/05 11:49:36;;;;;;;3.30;2.35;;;26.00;52.00;;;;;;4997427;28;20033;-79
2023/05/05 11:52:11;;;;;;;1.63;1.52;;;25.60;51.60;;;;;;4997453;28;20030;-77
2023/05/05 11:54:49;;;;;;;1.80;1.70;;;25.20;52.60;;;;;;4996606;28;20040;-78
2023/05/05 11:57:18;;;;;;;1.70;1.60;;;24.90;53.30;;;;;;4999889;28;20015;-77
2023/05/05 11:59:53;;;;;;;3.30;1.63;;;24.90;53.60;;;;;;5004344;28;20082;-77
2023/05/05 12:02:19;;;;;;;2.10;2.00;;;25.00;53.70;;;;;;5000343;28;20440;-79
2023/05/05 12:04:46;;;;;;;2.30;2.10;;;25.10;53.70;;;;;;4995745;28;20045;-77
2023/05/05 12:07:19;;;;;;;1.85;1.75;;;25.30;54.00;;;;;;5004999;28;20022;-76
2023/05/05 12:09:46;;;;;;;2.00;1.90;;;25.70;53.30;;;;;;4997893;28;20041;-76
2023/05/05 12:12:12;;;;;;;1.75;1.67;;;26.10;52.70;;;;;;5012482;28;20025;-75
2023/05/05 12:14:52;;;;;;;2.20;1.80;;;26.30;51.60;;;;;;5002028;28;20026;-77
2023/05/05 12:17:22;;;;;;;1.67;1.58;;;26.50;50.50;;;;;;5013656;28;20097;-77
2023/05/05 12:19:50;;;;;;;2.20;2.00;;;26.50;50.30;;;;;;5009166;28;20019;-75
2023/05/05 12:22:23;;;;;;;2.22;1.60;;;26.60;49.30;;;;;;5015345;28;20015;-78
2023/05/05 12:24:53;;;;;;;1.60;1.50;;;26.70;49.20;;;;;;4994587;28;20026;-76
2023/05/05 12:27:19;;;;;;;2.05;1.90;;;26.90;48.40;;;;;;4999657;28;20022;-77
2023/05/05 12:29:44;;;;;;;1.95;1.85;;;26.90;47.60;;;;;;4993694;28;20026;-78
2023/05/05 12:32:24;;;;;;;1.60;1.50;;;26.50;48.20;;;;;;4993032;28;20507;-78
2023/05/05 12:34:56;;;;;;;2.55;1.90;;;26.20;49.20;;;;;;4981108;28;20416;-77
2023/05/05 12:37:23;;;;;;;2.40;2.20;;;26.30;49.50;;;;;;4995344;28;20038;-77
2023/05/05 12:39:53;;;;;;;4.20;2.63;;;26.50;49.80;;;;;;4996235;28;20034;-78
2023/05/05 12:42:20;;;;;;;2.57;2.10;;;26.80;49.20;;;;;;4996763;28;20153;-78
2023/05/05 12:44:45;;;;;;;2.35;1.88;;;27.00;48.40;;;;;;4997138;28;20029;-77
2023/05/05 12:47:12;;;;;;;1.77;1.67;;;26.90;48.40;;;;;;4996193;28;20083;-79
2023/05/05 12:49:49;;;;;;;2.67;2.35;;;26.80;48.90;;;;;;4978229;28;20038;-78
2023/05/05 12:52:15;;;;;;;2.35;1.83;;;26.70;49.00;;;;;;4997041;28;20157;-78
2023/05/05 12:54:58;;;;;;;2.20;2.00;;;26.70;49.10;;;;;;4995698;28;20432;-78
2023/05/05 12:57:24;;;;;;;3.47;2.38;;;26.90;49.30;;;;;;4996334;28;20042;-78